This is the latest recevied weather packets stored in our database for station/object WB4E-13. If no packets are shown the sender has not sent any weather packets the latest 1 day(s).
| Time | Temp. | Humidity | Pressure | Rain* | Wind** | Luminosity | Snow |
|---|---|---|---|---|---|---|---|
| 1778040749 | 21.11° C | 50% | 1007.2 hPa | 0 mm | - | - | - |
| 1778039548 | 20.56° C | 52% | 1007.3 hPa | 0 mm | - | - | - |
| 1778038948 | 20.56° C | 52% | 1007.6 hPa | 0 mm | - | - | - |
| 1778038349 | 20.56° C | 51% | 1007.6 hPa | 0 mm | - | - | - |
| 1778037748 | 20.56° C | 51% | 1007.7 hPa | 0 mm | - | - | - |
| 1778037148 | 21.11° C | 50% | 1007.9 hPa | 0 mm | - | - | - |
| 1778034833 | 21.67° C | 46% | 1007.7 hPa | 0 mm | - | - | - |
| 1778034745 | 21.67° C | 46% | 1007.7 hPa | 0 mm | - | - | - |
| 1778034145 | 21.67° C | 46% | 1007.9 hPa | 0 mm | - | - | - |
| 1778033848 | 21.67° C | 45% | 1007.9 hPa | 0 mm | - | - | - |
| 1778033545 | 21.67° C | 45% | 1007.9 hPa | 0 mm | - | - | - |
| 1778032945 | 21.67° C | 45% | 1007.8 hPa | 0 mm | - | - | - |
| 1778031745 | 21.67° C | 45% | 1007.4 hPa | 0 mm | - | - | - |
| 1778031144 | 22.22° C | 44% | 1007 hPa | 0 mm | - | - | - |
| 1778030545 | 22.22° C | 43% | 1007 hPa | 0 mm | - | - | - |
| 1778029944 | 22.78° C | 43% | 1006.9 hPa | 0 mm | - | - | - |
| 1778029349 | 22.78° C | 43% | 1007 hPa | 0 mm | - | - | - |
| 1778028749 | 23.33° C | 43% | 1007.3 hPa | 0 mm | - | - | - |
| 1778026948 | 23.89° C | 41% | 1007.3 hPa | 0 mm | - | - | - |
| 1778024547 | 25° C | 38% | 1007 hPa | 0 mm | - | - | - |
| 1778022746 | 25.56° C | 40% | 1007 hPa | 0 mm | - | - | - |
* Rain latest hour (hover to see other rain measurements)
** Current wind speed in m/s (hover to see current wind gust speed)